Terminal Aerodrome Forecast
Issued by NWS Corpus Christi, TX

Current Version | Previous Version | Text Only | Print | Product List | Glossary Off
Versions: 1 2 3 4 5 6 7 8 9 10 11 12 13 14

000
FTUS44 KCRP 222300
TAFVCT
TAF
KVCT 222333Z 2300/2324 15012G18KT P6SM SCT045
     FM230300 15012KT P6SM SCT025
     FM230800 VRB03KT 5SM BR FEW015
      TEMPO 2310/2312 2SM BR
     FM231500 17012G18KT P6SM SCT030
     FM231900 15015G22KT P6SM SCT040=

USA.gov is the U.S. government's official web portal to all federal, state and local government web resources and services.